TENO2: Tenkiller Lake

Data processed at Sat Mar 17 2018 23:55


All information presented herein is the property of the government of the United States of America and may be revised or deleted at any time without prior notice.
Dissemination of this information without the expressed written consent of the Public Affairs Office, Tulsa District U.S. Army Corps of Engineers is strictly prohibited.
These data are gathered electronically and, as presented, have not undergone any form of quality control. These data are not guaranteed to be valid or correct.
Go to home page.
Go to station list.

Upstream stations:

Downstream station:
Previous Day
Next Day
Current Day
    
SHEF ID:       TENO2     Tenkiller Lake
STATION TYPE:  Reservoir
Normal Pool:  Bottom =   594.50, Top =   632.00

               PRECIP PRECIP(A) ELEVATION   STORAGE   TW-ELEV    INFLOW   RELEASE  AIR-TEMP  WIND-DIRWIND-SPEED REL-HUMID SOLAR-RAD   VOLTAGE  BAT-LOAD
                   in        in        ft     ac-ft        ft       cfs       cfs         F       deg       mph         %      W/m2      volt      volt
              Ccp-Rev   Ccp-Rev   Ccp-Rev   Ccp-Rev   Ccp-Rev  Regi-Rev  Regi-Rev   Ccp-Rev   Ccp-Rev   Ccp-Rev   Ccp-Rev   Ccp-Rev   Ccp-Rev   Ccp-Rev
(US/Central)
03/15 00:00      0.00      0.00    636.01    722155    486.77      1720      3086     41.63    252.90      0.38     69.41      1.00     13.73     13.18
03/15 01:00      0.00      0.00    636.01    722155    486.78      1436      3090     40.32    234.40      0.37     75.33      0.00     13.73     13.18
03/15 02:00      0.00      0.00    636.00    722018    486.75      1769      3090     39.33    239.20      0.38     78.93      1.00     13.73     13.18
03/15 03:00      0.00      0.00    635.98    721747    486.78      1775      3090     38.34    245.80      0.39     82.96      0.00     13.73     13.18
03/15 04:00      0.00      0.00    635.98    721747    486.80      1738      3090     37.47    242.90      0.39     86.38      0.00     13.73     13.18
03/15 05:00      0.00      0.00    635.97    721612    486.76      1489      3090     36.81    237.90      0.38     91.87      0.00     13.73     13.18
03/15 06:00      0.00      0.00    635.97    721612    486.72      2107      3090     36.91    238.30      0.36     95.71      1.00     13.73     13.18
03/15 07:00      0.00      0.00    635.95    721341    486.75      1743      3090     36.59    244.40      0.43     95.29      0.00     13.73     13.18
03/15 08:00      0.00      0.00    635.95    721341    486.75      1452      3090     38.68    257.20      0.32     87.60      6.00     13.73     13.18
03/15 09:00      0.00      0.00    635.94    721206    486.76      1489      3090     45.05    236.00      0.29     75.88    140.00     13.73     13.12
03/15 10:00      0.00      0.00    635.92    720935    486.76      1780      3090     56.35     94.30      0.44     40.96    345.00     13.73     13.12
03/15 11:00      0.00      0.00    635.92    720935    486.78      1452      3090     59.77    215.00      0.88     41.33    508.00     13.73     13.12
03/15 12:00      0.00      0.00    635.91    720800    486.72      1489      3090     64.27    218.50      3.86     32.29    671.00     13.73     13.12
03/15 13:00      0.00      0.00    635.90    720664    486.80      2107      3090     67.57    223.20      3.40     29.67    749.00     13.73     13.12
03/15 14:00      0.00      0.00    635.89    720529    486.82      1780      3090     69.66    224.80      3.27     28.20    781.00     13.73     13.12
03/15 15:00      0.00      0.00    635.89    720529    486.75      1489      3090     71.20    214.30      2.04     29.36    747.00     13.73     13.12
03/15 16:00      0.01      0.01    635.88    720394    485.49      1264      3090     72.30    220.70      3.47     27.23    644.00     13.73     13.12
03/15 17:00      0.00      0.00    635.88    720394    483.88      1693         0     73.40    223.20      4.92     27.47    497.00     13.73     13.18
03/15 18:00      0.00      0.00    635.86    720123    486.91      1304      3600     73.17    227.50      3.43     26.98    315.00     13.74     13.18
03/15 19:00      0.00      0.00    635.86    720123    486.93      1242      3600     69.87    229.30      3.22     31.44     84.00     13.73     13.24
03/15 20:00      0.00      0.00    635.83    719717    487.08      1635      3600     67.24    234.80      2.39     34.98      7.00     13.73     13.30
03/15 21:00      0.00      0.00    635.83    719717    487.09      1635      3600     66.25    245.00      2.28     36.32      0.00     13.73     13.24
03/15 22:00      0.00      0.00    635.82    719582    486.99      1635      3600     63.84    227.30      0.45     40.96      1.00     13.73     13.24
03/15 23:00      0.00      0.00    635.80    719311    487.02      1471      3600     63.18    183.60      0.43     42.55      1.00     13.74     13.24